Terminal Aerodrome Forecast
Issued by NWS

Home | Current Version | Previous Version | Graphics & Text | Print | Product List | Glossary On
Versions: 1 2 3 4 5 6 7 8 9 10 11 12 13 14 15 16 17 18 19 20 21 22 23 24 25 26 27 28 29 30 31
000
FTUS45 KBOU 280540
TAFBJC
TAF
KBJC 280540Z 2806/2906 27009KT P6SM FEW060 SCT120 BKN200
     FM281400 32010KT P6SM SCT080 BKN120
     FM281700 01014G22KT P6SM SCT060 BKN080
     FM282100 04013KT P6SM -SHRA SCT040 OVC060
      TEMPO 2823/2901 3SM -SHRASN BKN025 OVC035
     FM290100 03013KT 3SM -SN BR BKN010 OVC020
      TEMPO 2901/2904 3/4SM -SN BR OVC006=

USA.gov is the U.S. government's official web portal to all federal, state and local government web resources and services.